createdAt,value
2023-10-18T00:00:21.553Z,-0.86
2023-10-18T00:01:15.679Z,-0.87
2023-10-18T00:05:12.358Z,-0.82
2023-10-18T00:05:46.161Z,-0.83
2023-10-18T00:06:23.153Z,-0.82
2023-10-18T00:06:56.857Z,-0.81
2023-10-18T00:07:30.452Z,-0.79
2023-10-18T00:08:05.275Z,-0.79
2023-10-18T00:08:59.346Z,-0.76
2023-10-18T00:09:49.907Z,-0.78
2023-10-18T00:10:26.453Z,-0.79
2023-10-18T00:11:01.135Z,-0.75
2023-10-18T00:11:34.785Z,-0.75
2023-10-18T00:12:45.920Z,-0.72
2023-10-18T00:13:20.114Z,-0.73
2023-10-18T00:13:55.321Z,-0.73
2023-10-18T00:14:28.742Z,-0.74
2023-10-18T00:15:03.020Z,-0.74
2023-10-18T00:15:36.822Z,-0.74
2023-10-18T00:16:27.722Z,-0.71
2023-10-18T00:17:01.472Z,-0.73
2023-10-18T00:17:35.023Z,-0.73
2023-10-18T00:18:08.771Z,-0.75
2023-10-18T00:18:42.508Z,-0.78
2023-10-18T00:19:16.087Z,-0.80
2023-10-18T00:20:07.859Z,-0.80
2023-10-18T00:20:41.716Z,-0.82
2023-10-18T00:21:15.315Z,-0.85
2023-10-18T00:21:48.748Z,-0.91
2023-10-18T00:22:22.389Z,-0.90
2023-10-18T00:22:56.283Z,-0.91
2023-10-18T00:23:42.272Z,-0.90
2023-10-18T00:24:16.921Z,-0.93
2023-10-18T00:24:51.224Z,-0.92
2023-10-18T00:25:25.069Z,-0.93
2023-10-18T00:26:01.903Z,-0.93
2023-10-18T00:26:35.328Z,-0.93
2023-10-18T00:27:22.553Z,-0.93
2023-10-18T00:27:56.032Z,-0.94
2023-10-18T00:28:29.625Z,-0.93
2023-10-18T00:29:02.949Z,-0.89
2023-10-18T00:29:37.561Z,-0.86
2023-10-18T00:30:13.085Z,-0.87
2023-10-18T00:31:12.343Z,-0.90
2023-10-18T00:31:46.441Z,-0.94
2023-10-18T00:32:21.738Z,-0.98
2023-10-18T00:32:55.482Z,-0.95
2023-10-18T00:33:30.122Z,-0.96
2023-10-18T00:34:40.647Z,-0.92
2023-10-18T00:35:18.305Z,-0.96
2023-10-18T00:35:55.798Z,-0.96
2023-10-18T00:36:31.848Z,-0.98
2023-10-18T00:37:09.539Z,-1.02
2023-10-18T00:37:45.949Z,-1.02
2023-10-18T00:38:29.889Z,-0.99
2023-10-18T00:39:20.696Z,-1.01
2023-10-18T00:39:54.430Z,-1.05
2023-10-18T00:40:31.493Z,-1.03
2023-10-18T00:41:08.538Z,-1.08
2023-10-18T00:42:32.706Z,-1.06
2023-10-18T00:43:18.054Z,-1.08
2023-10-18T00:43:54.874Z,-1.12
2023-10-18T00:44:29.145Z,-1.11
2023-10-18T00:45:10.508Z,-1.14
2023-10-18T00:45:57.819Z,-1.14
2023-10-18T00:46:31.570Z,-1.21
2023-10-18T00:47:06.496Z,-1.23
2023-10-18T00:47:40.226Z,-1.24
2023-10-18T00:48:14.172Z,-1.24
2023-10-18T00:48:48.896Z,-1.23
2023-10-18T00:49:30.936Z,-1.19
2023-10-18T00:50:06.026Z,-1.25
2023-10-18T00:50:43.297Z,-1.31
2023-10-18T00:51:20.444Z,-1.30
2023-10-18T00:51:53.996Z,-1.34
2023-10-18T00:52:29.680Z,-1.39
2023-10-18T00:53:21.641Z,-1.38
2023-10-18T00:53:56.249Z,-1.46
2023-10-18T00:54:30.845Z,-1.46
2023-10-18T00:55:06.834Z,-1.47
2023-10-18T00:55:40.588Z,-1.47
2023-10-18T00:56:52.497Z,-1.52
2023-10-18T00:57:39.162Z,-1.58
2023-10-18T00:58:24.536Z,-1.62
2023-10-18T00:59:00.964Z,-1.59
2023-10-18T00:59:34.435Z,-1.60
2023-10-18T01:00:14.220Z,-1.64
2023-10-18T01:00:57.848Z,-1.62
2023-10-18T01:01:32.332Z,-1.64
2023-10-18T01:02:12.911Z,-1.65
2023-10-18T01:02:50.241Z,-1.68
2023-10-18T01:03:30.320Z,-1.71
2023-10-18T01:04:36.213Z,-1.69
2023-10-18T01:05:12.530Z,-1.72
2023-10-18T01:06:28.567Z,-1.72
2023-10-18T01:07:14.797Z,-1.70
2023-10-18T01:08:30.929Z,-1.64
2023-10-18T01:09:05.572Z,-1.71
2023-10-18T01:09:39.219Z,-1.75
2023-10-18T01:10:14.199Z,-1.73
2023-10-18T01:10:52.694Z,-1.75
2023-10-18T01:12:02.313Z,-1.79
2023-10-18T01:12:39.411Z,-1.85
2023-10-18T01:13:13.549Z,-1.84
2023-10-18T01:13:46.977Z,-1.86
2023-10-18T01:14:25.168Z,-1.84
2023-10-18T01:14:58.804Z,-1.87
2023-10-18T01:15:46.432Z,-1.87
2023-10-18T01:16:23.412Z,-1.92
2023-10-18T01:16:58.014Z,-1.94
2023-10-18T01:17:34.804Z,-1.95
2023-10-18T01:18:09.425Z,-1.98
2023-10-18T01:18:46.330Z,-1.94
2023-10-18T01:19:32.230Z,-1.91
2023-10-18T01:20:21.518Z,-1.95
2023-10-18T01:20:57.856Z,-1.92
2023-10-18T01:21:35.409Z,-1.91
2023-10-18T01:22:09.260Z,-1.94
2023-10-18T01:23:17.100Z,-1.91
2023-10-18T01:23:55.744Z,-1.96
2023-10-18T01:24:31.432Z,-1.98
2023-10-18T01:25:05.998Z,-1.99
2023-10-18T01:25:39.626Z,-1.99
2023-10-18T01:26:15.283Z,-1.98
2023-10-18T01:27:02.024Z,-1.95
2023-10-18T01:27:36.359Z,-1.96
2023-10-18T01:28:10.396Z,-1.97
2023-10-18T01:28:44.639Z,-1.98
2023-10-18T01:29:18.583Z,-2.01
2023-10-18T01:29:52.229Z,-2.01
2023-10-18T01:30:42.337Z,-2.03
2023-10-18T01:31:16.538Z,-2.09
2023-10-18T01:31:50.929Z,-2.07
2023-10-18T01:32:29.805Z,-2.06
2023-10-18T01:33:03.405Z,-2.03
2023-10-18T01:33:45.922Z,-2.03
2023-10-18T01:34:27.772Z,-2.00
2023-10-18T01:35:02.562Z,-2.02
2023-10-18T01:35:37.425Z,-2.01
2023-10-18T01:36:15.466Z,-2.00
2023-10-18T01:36:50.700Z,-1.98
2023-10-18T01:37:24.599Z,-1.99
2023-10-18T01:38:15.094Z,-1.91
2023-10-18T01:38:56.592Z,-1.94
2023-10-18T01:39:31.212Z,-1.90
2023-10-18T01:40:31.078Z,-1.88
2023-10-18T01:41:11.197Z,-1.87
2023-10-18T01:42:15.584Z,-1.78
2023-10-18T01:42:58.818Z,-1.78
2023-10-18T01:43:33.151Z,-1.78
2023-10-18T01:44:08.780Z,-1.75
2023-10-18T01:44:43.204Z,-1.74
2023-10-18T01:45:59.551Z,-1.69
2023-10-18T01:46:35.375Z,-1.69
2023-10-18T01:47:09.333Z,-1.68
2023-10-18T01:47:53.382Z,-1.67
2023-10-18T01:48:30.727Z,-1.68
2023-10-18T01:49:45.802Z,-1.60
2023-10-18T01:50:20.244Z,-1.61
2023-10-18T01:50:54.106Z,-1.61
2023-10-18T01:51:31.277Z,-1.59
2023-10-18T01:52:08.802Z,-1.58
2023-10-18T01:53:17.490Z,-1.54
2023-10-18T01:53:52.713Z,-1.56
2023-10-18T01:54:27.110Z,-1.55
2023-10-18T01:55:01.577Z,-1.54
2023-10-18T01:55:37.918Z,-1.52
2023-10-18T01:56:12.310Z,-1.50
2023-10-18T01:57:07.969Z,-1.46
2023-10-18T01:57:44.643Z,-1.48
2023-10-18T01:58:18.710Z,-1.46
2023-10-18T01:58:54.921Z,-1.46
2023-10-18T01:59:32.072Z,-1.44
2023-10-18T02:03:31.798Z,-1.49
2023-10-18T02:05:18.051Z,-1.48
2023-10-18T02:05:51.629Z,-1.52
2023-10-18T02:06:25.238Z,-1.54
2023-10-18T02:07:01.494Z,-1.54
2023-10-18T02:07:36.986Z,-1.55
2023-10-18T02:08:13.081Z,-1.56
2023-10-18T02:08:57.201Z,-1.53
2023-10-18T02:09:51.319Z,-1.56
2023-10-18T02:10:25.300Z,-1.56
2023-10-18T02:10:58.655Z,-1.56
2023-10-18T02:11:37.961Z,-1.56
2023-10-18T02:12:11.348Z,-1.55
2023-10-18T02:12:57.501Z,-1.51
2023-10-18T02:13:31.212Z,-1.53
2023-10-18T02:14:07.588Z,-1.54
2023-10-18T02:14:41.769Z,-1.57
2023-10-18T02:15:16.308Z,-1.57
2023-10-18T02:15:50.271Z,-1.61
2023-10-18T02:16:36.733Z,-1.59
2023-10-18T02:17:11.743Z,-1.63
2023-10-18T02:17:48.114Z,-1.62
2023-10-18T02:18:22.457Z,-1.64
2023-10-18T02:18:56.866Z,-1.64
2023-10-18T02:19:32.923Z,-1.65
2023-10-18T02:20:26.685Z,-1.62
2023-10-18T02:21:00.316Z,-1.63
2023-10-18T02:21:36.235Z,-1.63
2023-10-18T02:22:09.953Z,-1.64
2023-10-18T02:22:47.704Z,-1.69
2023-10-18T02:23:55.032Z,-1.74
2023-10-18T02:24:29.667Z,-1.74
2023-10-18T02:25:05.996Z,-1.75
2023-10-18T02:25:43.986Z,-1.80
2023-10-18T02:26:35.609Z,-1.76
2023-10-18T02:27:38.160Z,-1.75
2023-10-18T02:28:24.161Z,-1.78
2023-10-18T02:29:01.263Z,-1.76
2023-10-18T02:29:37.078Z,-1.77
2023-10-18T02:30:12.795Z,-1.76
2023-10-18T02:30:47.431Z,-1.75
2023-10-18T02:31:32.008Z,-1.74
2023-10-18T02:32:08.450Z,-1.72
2023-10-18T02:32:43.237Z,-1.70
2023-10-18T02:33:17.299Z,-1.70
2023-10-18T02:33:50.944Z,-1.69
2023-10-18T02:34:30.325Z,-1.72
2023-10-18T02:35:17.534Z,-1.68
2023-10-18T02:35:52.807Z,-1.73
2023-10-18T02:36:34.198Z,-1.77
2023-10-18T02:37:08.831Z,-1.76
2023-10-18T02:37:42.907Z,-1.76
2023-10-18T02:38:52.280Z,-1.73
2023-10-18T02:39:29.888Z,-1.75
2023-10-18T02:40:10.191Z,-1.75
2023-10-18T02:40:45.513Z,-1.75
2023-10-18T02:41:31.314Z,-1.75
2023-10-18T02:42:38.993Z,-1.71
2023-10-18T02:43:12.962Z,-1.74
2023-10-18T02:43:48.726Z,-1.76
2023-10-18T02:44:25.492Z,-1.78
2023-10-18T02:44:59.180Z,-1.80
2023-10-18T02:45:32.653Z,-1.81
2023-10-18T02:46:25.938Z,-1.81
2023-10-18T02:47:25.716Z,-1.86
2023-10-18T02:48:00.200Z,-1.83
2023-10-18T02:48:35.993Z,-1.84
2023-10-18T02:49:10.577Z,-1.82
2023-10-18T02:50:23.007Z,-1.81
2023-10-18T02:50:59.316Z,-1.85
2023-10-18T02:51:33.622Z,-1.85
2023-10-18T02:52:11.561Z,-1.86
2023-10-18T02:52:47.785Z,-1.85
2023-10-18T02:54:12.806Z,-1.84
2023-10-18T02:54:50.405Z,-1.84
2023-10-18T02:55:27.658Z,-1.83
2023-10-18T02:56:01.618Z,-1.82
2023-10-18T02:56:38.868Z,-1.80
2023-10-18T02:57:35.083Z,-1.77
2023-10-18T02:58:08.872Z,-1.76
2023-10-18T02:58:42.680Z,-1.83
2023-10-18T02:59:16.549Z,-1.87
2023-10-18T02:59:51.895Z,-1.94
2023-10-18T03:00:26.730Z,-1.98
2023-10-18T03:01:16.547Z,-2.00
2023-10-18T03:01:51.471Z,-1.98
2023-10-18T03:02:26.413Z,-1.96
2023-10-18T03:03:00.250Z,-1.96
2023-10-18T03:03:35.054Z,-1.98
2023-10-18T03:04:16.582Z,-2.01
2023-10-18T03:04:59.223Z,-2.00
2023-10-18T03:05:34.659Z,-2.03
2023-10-18T03:06:15.742Z,-2.04
2023-10-18T03:06:51.660Z,-2.07
2023-10-18T03:07:25.574Z,-2.05
2023-10-18T03:08:01.218Z,-2.03
2023-10-18T03:08:51.311Z,-2.06
2023-10-18T03:09:30.166Z,-2.11
2023-10-18T03:10:13.752Z,-2.11
2023-10-18T03:10:49.454Z,-2.11
2023-10-18T03:11:23.106Z,-2.13
2023-10-18T03:12:26.433Z,-2.12
2023-10-18T03:13:02.721Z,-2.11
2023-10-18T03:13:38.674Z,-2.13
2023-10-18T03:14:14.064Z,-2.14
2023-10-18T03:14:57.022Z,-2.15
2023-10-18T03:16:17.015Z,-2.11
2023-10-18T03:16:51.400Z,-2.12
2023-10-18T03:17:36.890Z,-2.11
2023-10-18T03:18:16.857Z,-2.10
2023-10-18T03:18:51.358Z,-2.09
2023-10-18T03:19:51.158Z,-2.05
2023-10-18T03:20:24.940Z,-2.06
2023-10-18T03:20:59.551Z,-2.05
2023-10-18T03:21:33.929Z,-2.06
2023-10-18T03:22:07.828Z,-2.05
2023-10-18T03:22:44.786Z,-2.08
2023-10-18T03:23:27.695Z,-2.08
2023-10-18T03:24:01.836Z,-2.11
2023-10-18T03:24:38.296Z,-2.09
2023-10-18T03:25:18.383Z,-2.10
2023-10-18T03:26:00.587Z,-2.09
2023-10-18T03:27:12.464Z,-2.12
2023-10-18T03:27:53.103Z,-2.15
2023-10-18T03:28:27.205Z,-2.14
2023-10-18T03:29:12.678Z,-2.13
2023-10-18T03:29:46.764Z,-2.13
2023-10-18T03:30:20.397Z,-2.13
2023-10-18T03:31:22.621Z,-2.11
2023-10-18T03:31:56.066Z,-2.19
2023-10-18T03:32:29.402Z,-2.24
2023-10-18T03:33:02.760Z,-2.26
2023-10-18T03:33:38.411Z,-2.27
2023-10-18T03:34:44.081Z,-2.25
2023-10-18T03:35:21.880Z,-2.29
2023-10-18T03:36:18.177Z,-2.28
2023-10-18T03:36:54.243Z,-2.27
2023-10-18T03:37:27.685Z,-2.28
2023-10-18T03:38:31.057Z,-2.27
2023-10-18T03:39:25.314Z,-2.35
2023-10-18T03:39:58.755Z,-2.39
2023-10-18T03:40:38.298Z,-2.38
2023-10-18T03:41:17.454Z,-2.40
2023-10-18T03:42:32.544Z,-2.34
2023-10-18T03:43:11.312Z,-2.36
2023-10-18T03:43:49.694Z,-2.36
2023-10-18T03:44:28.955Z,-2.33
2023-10-18T03:45:12.647Z,-2.31
2023-10-18T03:46:13.877Z,-2.26
2023-10-18T03:46:50.228Z,-2.28
2023-10-18T03:47:26.477Z,-2.29
2023-10-18T03:48:00.695Z,-2.32
2023-10-18T03:48:41.892Z,-2.37
2023-10-18T03:49:32.896Z,-2.38
2023-10-18T03:50:17.096Z,-2.36
2023-10-18T03:50:54.596Z,-2.39
2023-10-18T03:51:31.948Z,-2.38
2023-10-18T03:52:15.060Z,-2.36
2023-10-18T03:52:48.269Z,-2.33
2023-10-18T03:53:59.884Z,-2.28
2023-10-18T03:54:45.776Z,-2.27
2023-10-18T03:55:19.907Z,-2.28
2023-10-18T03:55:57.770Z,-2.27
2023-10-18T03:56:34.830Z,-2.25
2023-10-18T03:57:39.613Z,-2.22
2023-10-18T03:58:23.875Z,-2.24
2023-10-18T03:59:11.308Z,-2.24
2023-10-18T03:59:48.407Z,-2.21
2023-10-18T04:00:29.727Z,-2.19
2023-10-18T04:01:43.081Z,-2.16
2023-10-18T04:02:25.386Z,-2.16
2023-10-18T04:03:01.024Z,-2.16
2023-10-18T04:03:36.746Z,-2.16
2023-10-18T04:04:19.383Z,-2.15
2023-10-18T04:05:32.793Z,-2.13
2023-10-18T04:06:09.138Z,-2.16
2023-10-18T04:06:44.065Z,-2.16
2023-10-18T04:07:25.807Z,-2.16
2023-10-18T04:07:59.202Z,-2.15
2023-10-18T04:09:15.719Z,-2.11
2023-10-18T04:10:07.998Z,-2.13
2023-10-18T04:10:42.392Z,-2.14
2023-10-18T04:11:15.998Z,-2.13
2023-10-18T04:11:49.945Z,-2.12
2023-10-18T04:12:26.624Z,-2.11
2023-10-18T04:13:13.005Z,-2.08
2023-10-18T04:13:46.855Z,-2.11
2023-10-18T04:14:24.323Z,-2.12
2023-10-18T04:14:57.996Z,-2.12
2023-10-18T04:15:38.308Z,-2.13
2023-10-18T04:16:48.789Z,-2.09
2023-10-18T04:17:33.843Z,-2.12
2023-10-18T04:18:10.141Z,-2.15
2023-10-18T04:18:43.876Z,-2.16
2023-10-18T04:19:26.942Z,-2.19
2023-10-18T04:20:32.994Z,-2.23
2023-10-18T04:21:29.497Z,-2.28
2023-10-18T04:22:06.551Z,-2.31
2023-10-18T04:22:39.861Z,-2.31
2023-10-18T04:23:28.194Z,-2.32
2023-10-18T04:24:25.355Z,-2.32
2023-10-18T04:24:59.113Z,-2.35
2023-10-18T04:25:33.321Z,-2.36
2023-10-18T04:26:12.324Z,-2.37
2023-10-18T04:26:46.800Z,-2.39
2023-10-18T04:27:20.559Z,-2.42
2023-10-18T04:28:06.422Z,-2.38
2023-10-18T04:28:40.127Z,-2.44
2023-10-18T04:29:20.776Z,-2.46
2023-10-18T04:30:00.353Z,-2.46
2023-10-18T04:30:38.458Z,-2.45
2023-10-18T04:31:13.866Z,-2.45
2023-10-18T04:31:57.876Z,-2.45
2023-10-18T04:32:31.529Z,-2.47
2023-10-18T04:33:26.205Z,-2.49
2023-10-18T04:34:00.693Z,-2.48
2023-10-18T04:34:35.803Z,-2.53
2023-10-18T04:35:42.092Z,-2.57
2023-10-18T04:36:22.364Z,-2.63
2023-10-18T04:36:57.110Z,-2.58
2023-10-18T04:37:30.332Z,-2.60
2023-10-18T04:38:22.310Z,-2.61
2023-10-18T04:39:20.101Z,-2.63
2023-10-18T04:39:54.746Z,-2.67
2023-10-18T04:40:28.866Z,-2.67
2023-10-18T04:41:02.090Z,-2.67
2023-10-18T04:41:35.326Z,-2.66
2023-10-18T04:42:10.010Z,-2.69
2023-10-18T04:42:59.015Z,-2.68
2023-10-18T04:43:34.571Z,-2.71
2023-10-18T04:44:20.433Z,-2.73
2023-10-18T04:44:57.813Z,-2.75
2023-10-18T04:45:31.220Z,-2.77
2023-10-18T04:46:39.298Z,-2.75
2023-10-18T04:47:16.293Z,-2.77
2023-10-18T04:47:51.145Z,-2.78
2023-10-18T04:48:45.180Z,-2.77
2023-10-18T04:49:33.601Z,-2.76
2023-10-18T04:50:40.890Z,-2.69
2023-10-18T04:51:28.625Z,-2.71
2023-10-18T04:52:06.648Z,-2.70
2023-10-18T04:52:44.175Z,-2.70
2023-10-18T04:53:24.949Z,-2.70
2023-10-18T04:53:59.721Z,-2.70
2023-10-18T04:54:44.083Z,-2.67
2023-10-18T04:55:17.559Z,-2.69
2023-10-18T04:55:53.231Z,-2.70
2023-10-18T04:56:45.528Z,-2.69
2023-10-18T04:57:19.183Z,-2.67
2023-10-18T04:57:54.519Z,-2.68
2023-10-18T04:58:42.576Z,-2.65
2023-10-18T04:59:20.417Z,-2.66
2023-10-18T04:59:54.158Z,-2.63
2023-10-18T05:00:50.662Z,-2.64
2023-10-18T05:01:24.762Z,-2.63
2023-10-18T05:02:39.834Z,-2.60
2023-10-18T05:03:14.979Z,-2.61
2023-10-18T05:03:51.986Z,-2.62
2023-10-18T05:04:36.190Z,-2.63
2023-10-18T05:05:11.820Z,-2.62
2023-10-18T05:06:18.191Z,-2.60
2023-10-18T05:07:02.617Z,-2.61
2023-10-18T05:07:49.210Z,-2.60
2023-10-18T05:08:22.754Z,-2.62
2023-10-18T05:08:57.512Z,-2.59
2023-10-18T05:10:17.901Z,-2.55
2023-10-18T05:10:53.840Z,-2.58
2023-10-18T05:11:28.408Z,-2.58
2023-10-18T05:12:08.979Z,-2.58
2023-10-18T05:12:55.125Z,-2.64
2023-10-18T05:13:50.580Z,-2.52
2023-10-18T05:14:50.158Z,-2.54
2023-10-18T05:15:34.918Z,-2.53
2023-10-18T05:16:15.666Z,-2.51
2023-10-18T05:16:49.376Z,-2.50
2023-10-18T05:18:03.983Z,-2.49
2023-10-18T05:18:38.815Z,-2.49
2023-10-18T05:19:13.389Z,-2.47
2023-10-18T05:19:46.830Z,-2.48
2023-10-18T05:20:20.231Z,-2.48
2023-10-18T05:20:54.003Z,-2.48
2023-10-18T05:21:41.043Z,-2.45
2023-10-18T05:22:27.524Z,-2.49
2023-10-18T05:23:01.023Z,-2.49
2023-10-18T05:23:35.963Z,-2.49
2023-10-18T05:24:18.138Z,-2.47
2023-10-18T05:25:13.325Z,-2.48
2023-10-18T05:26:05.334Z,-2.43
2023-10-18T05:26:39.258Z,-2.45
2023-10-18T05:27:21.349Z,-2.46
2023-10-18T05:28:13.359Z,-2.45
2023-10-18T05:28:50.753Z,-2.47
2023-10-18T05:29:44.539Z,-2.48
2023-10-18T05:30:27.562Z,-2.52
2023-10-18T05:31:25.122Z,-2.55
2023-10-18T05:32:10.262Z,-2.53
2023-10-18T05:33:39.809Z,-2.51
2023-10-18T05:34:14.089Z,-2.54
2023-10-18T05:35:10.268Z,-2.57
2023-10-18T05:35:47.090Z,-2.65
2023-10-18T05:36:23.308Z,-2.61
2023-10-18T05:37:16.051Z,-2.61
2023-10-18T05:37:59.540Z,-2.66
2023-10-18T05:38:48.140Z,-2.70
2023-10-18T05:39:27.117Z,-2.68
2023-10-18T05:40:30.713Z,-2.67
2023-10-18T05:41:37.735Z,-2.62
2023-10-18T05:42:15.358Z,-2.73
2023-10-18T05:42:49.958Z,-2.77
2023-10-18T05:43:24.377Z,-2.79
2023-10-18T05:44:07.684Z,-2.81
2023-10-18T05:44:55.364Z,-2.76
2023-10-18T05:45:33.588Z,-2.77
2023-10-18T05:46:09.151Z,-2.75
2023-10-18T05:46:42.909Z,-2.72
2023-10-18T05:47:17.453Z,-2.69
2023-10-18T05:47:55.924Z,-2.64
2023-10-18T05:48:42.650Z,-2.59
2023-10-18T05:49:26.885Z,-2.59
2023-10-18T05:50:02.217Z,-2.57
2023-10-18T05:50:36.306Z,-2.55
2023-10-18T05:52:38.223Z,-2.43
2023-10-18T05:53:13.343Z,-2.40
2023-10-18T05:53:47.721Z,-2.36
2023-10-18T05:54:23.071Z,-2.36
2023-10-18T05:54:58.301Z,-2.30
2023-10-18T05:56:09.258Z,-2.21
2023-10-18T05:56:43.197Z,-2.21
2023-10-18T05:57:20.984Z,-2.18
2023-10-18T05:57:55.962Z,-2.15
2023-10-18T05:58:29.381Z,-2.13
2023-10-18T05:59:21.489Z,-2.08
2023-10-18T06:00:17.485Z,-2.02
2023-10-18T06:00:52.389Z,-1.98
2023-10-18T06:01:26.199Z,-1.95
2023-10-18T06:02:02.789Z,-1.94
2023-10-18T06:02:38.469Z,-1.92
2023-10-18T06:03:46.654Z,-1.85
2023-10-18T06:04:27.015Z,-1.84
2023-10-18T06:05:00.821Z,-1.81
2023-10-18T06:05:37.043Z,-1.80
2023-10-18T06:06:10.549Z,-1.79
2023-10-18T06:06:44.887Z,-1.78
2023-10-18T06:07:33.650Z,-1.77
2023-10-18T06:08:09.135Z,-1.76
2023-10-18T06:08:43.970Z,-1.75
2023-10-18T06:09:28.802Z,-1.72
2023-10-18T06:10:11.719Z,-1.73
2023-10-18T06:11:22.735Z,-1.71
2023-10-18T06:11:56.669Z,-1.70
2023-10-18T06:12:31.993Z,-1.70
2023-10-18T06:13:11.771Z,-1.70
2023-10-18T06:13:46.653Z,-1.69
2023-10-18T06:14:20.190Z,-1.68
2023-10-18T06:15:17.532Z,-1.63
2023-10-18T06:15:54.460Z,-1.64
2023-10-18T06:16:34.745Z,-1.64
2023-10-18T06:17:09.805Z,-1.60
2023-10-18T06:17:49.430Z,-1.58
2023-10-18T06:18:51.079Z,-1.54
2023-10-18T06:19:29.518Z,-1.54
2023-10-18T06:20:09.002Z,-1.50
2023-10-18T06:20:46.401Z,-1.46
2023-10-18T06:21:20.284Z,-1.44
2023-10-18T06:22:00.990Z,-1.43
2023-10-18T06:22:45.349Z,-1.39
2023-10-18T06:23:33.842Z,-1.39
2023-10-18T06:24:13.453Z,-1.37
2023-10-18T06:24:50.514Z,-1.34
2023-10-18T06:25:27.422Z,-1.33
2023-10-18T06:26:32.258Z,-1.25
2023-10-18T06:27:05.947Z,-1.26
2023-10-18T06:27:42.194Z,-1.24
2023-10-18T06:28:22.702Z,-1.21
2023-10-18T06:29:02.153Z,-1.20
2023-10-18T06:29:37.485Z,-1.19
2023-10-18T06:30:19.389Z,-1.18
2023-10-18T06:30:54.007Z,-1.19
2023-10-18T06:31:29.031Z,-1.17
2023-10-18T06:32:06.143Z,-1.17
2023-10-18T06:32:42.305Z,-1.17
2023-10-18T06:33:17.216Z,-1.17
2023-10-18T06:34:05.916Z,-1.14
2023-10-18T06:34:39.553Z,-1.16
2023-10-18T06:35:19.325Z,-1.16
2023-10-18T06:35:52.992Z,-1.16
2023-10-18T06:36:27.066Z,-1.15
2023-10-18T06:37:43.203Z,-1.10
2023-10-18T06:38:18.801Z,-1.07
2023-10-18T06:38:52.688Z,-1.07
2023-10-18T06:39:39.229Z,-1.05
2023-10-18T06:40:23.739Z,-1.03
2023-10-18T06:41:21.190Z,-0.98
2023-10-18T06:41:56.040Z,-0.97
2023-10-18T06:42:29.557Z,-0.95
2023-10-18T06:43:04.844Z,-0.94
2023-10-18T06:43:38.201Z,-0.90
2023-10-18T06:44:12.722Z,-0.87
2023-10-18T06:45:04.904Z,-0.80
2023-10-18T06:45:39.304Z,-0.79
2023-10-18T06:46:17.240Z,-0.76
2023-10-18T06:46:50.919Z,-0.74
2023-10-18T06:47:33.357Z,-0.71
2023-10-18T06:48:39.861Z,-0.61
2023-10-18T06:49:13.379Z,-0.62
2023-10-18T06:49:52.627Z,-0.61
2023-10-18T06:50:29.745Z,-0.59
2023-10-18T06:51:03.308Z,-0.59
2023-10-18T06:51:42.322Z,-0.56
2023-10-18T06:52:41.915Z,-0.49
2023-10-18T06:53:17.364Z,-0.48
2023-10-18T06:53:54.571Z,-0.45
2023-10-18T06:54:33.878Z,-0.44
2023-10-18T06:55:07.854Z,-0.41
2023-10-18T06:56:21.154Z,-0.34
2023-10-18T06:56:55.801Z,-0.34
2023-10-18T06:57:37.339Z,-0.32
2023-10-18T06:58:36.938Z,-0.29
2023-10-18T06:59:48.598Z,-0.22
2023-10-18T07:00:31.917Z,-0.24
2023-10-18T07:01:06.178Z,-0.23
2023-10-18T07:01:56.244Z,-0.22
2023-10-18T07:02:31.610Z,-0.22
2023-10-18T07:03:38.583Z,-0.19
2023-10-18T07:04:36.767Z,-0.21
2023-10-18T07:05:12.832Z,-0.21
2023-10-18T07:05:52.539Z,-0.18
2023-10-18T07:06:26.314Z,-0.15
2023-10-18T07:07:00.886Z,-0.14
2023-10-18T07:07:47.469Z,-0.09
2023-10-18T07:08:21.341Z,-0.12
2023-10-18T07:08:54.834Z,-0.06
2023-10-18T07:09:33.016Z,-0.05
2023-10-18T07:10:07.565Z,-0.08
2023-10-18T07:11:52.035Z,0.01
2023-10-18T07:12:28.527Z,0.00
2023-10-18T07:13:04.219Z,0.02
2023-10-18T07:13:40.496Z,0.03
2023-10-18T07:14:14.419Z,0.06
2023-10-18T07:15:24.627Z,0.13
2023-10-18T07:15:59.906Z,0.14
2023-10-18T07:16:33.484Z,0.15
2023-10-18T07:17:11.070Z,0.15
2023-10-18T07:17:48.190Z,0.20
2023-10-18T07:18:22.639Z,0.23
2023-10-18T07:19:23.033Z,0.27
2023-10-18T07:19:59.794Z,0.34
2023-10-18T07:20:35.351Z,0.38
2023-10-18T07:21:10.107Z,0.41
2023-10-18T07:21:44.647Z,0.45
2023-10-18T07:22:46.242Z,0.52
2023-10-18T07:23:22.558Z,0.54
2023-10-18T07:23:56.288Z,0.57
2023-10-18T07:24:39.553Z,0.62
2023-10-18T07:25:23.455Z,0.65
2023-10-18T07:26:33.044Z,0.78
2023-10-18T07:27:10.045Z,0.78
2023-10-18T07:27:43.447Z,0.81
2023-10-18T07:28:21.109Z,0.83
2023-10-18T07:28:55.919Z,0.88
2023-10-18T07:29:29.861Z,0.91
2023-10-18T07:30:16.977Z,0.99
2023-10-18T07:30:51.581Z,1.02
2023-10-18T07:31:33.910Z,1.07
2023-10-18T07:32:14.880Z,1.12
2023-10-18T07:32:59.695Z,1.17
2023-10-18T07:33:57.116Z,1.27
2023-10-18T07:34:30.955Z,1.29
2023-10-18T07:35:04.882Z,1.32
2023-10-18T07:35:39.018Z,1.34
2023-10-18T07:36:13.377Z,1.38
2023-10-18T07:36:47.635Z,1.43
2023-10-18T07:37:45.701Z,1.50
2023-10-18T07:38:27.265Z,1.55
2023-10-18T07:39:05.979Z,1.60
2023-10-18T07:39:42.072Z,1.64
2023-10-18T07:40:23.148Z,1.68
2023-10-18T07:41:29.316Z,1.79
2023-10-18T07:42:07.086Z,1.82
2023-10-18T07:42:45.384Z,1.84
2023-10-18T07:43:20.896Z,1.90
2023-10-18T07:43:57.314Z,1.94
2023-10-18T07:45:06.106Z,2.03
2023-10-18T07:45:41.348Z,2.05
2023-10-18T07:46:26.803Z,2.09
2023-10-18T07:47:00.170Z,2.12
2023-10-18T07:47:34.010Z,2.17
2023-10-18T07:48:47.794Z,2.23
2023-10-18T07:49:21.804Z,2.25
2023-10-18T07:49:59.876Z,2.25
2023-10-18T07:50:36.469Z,2.27
2023-10-18T07:51:27.207Z,2.30
2023-10-18T07:52:19.168Z,2.38
2023-10-18T07:52:58.581Z,2.39
2023-10-18T07:53:32.314Z,2.45
2023-10-18T07:54:06.911Z,2.49
2023-10-18T07:54:41.125Z,2.53
2023-10-18T07:55:14.837Z,2.59
2023-10-18T07:56:13.269Z,2.67
2023-10-18T07:56:54.718Z,2.71
2023-10-18T07:57:35.224Z,2.77
2023-10-18T07:58:25.476Z,2.86
2023-10-18T07:59:17.929Z,2.95
2023-10-18T08:00:28.330Z,3.10
2023-10-18T08:01:05.136Z,3.21
2023-10-18T08:02:09.076Z,3.27
2023-10-18T08:02:45.252Z,3.38
2023-10-18T08:03:19.229Z,3.42
2023-10-18T08:04:03.394Z,3.50
2023-10-18T08:04:38.073Z,3.54
2023-10-18T08:05:12.154Z,3.60
2023-10-18T08:05:52.174Z,3.69
2023-10-18T08:06:29.119Z,3.78
2023-10-18T08:07:03.770Z,3.84
2023-10-18T08:07:53.945Z,3.93
2023-10-18T08:08:28.296Z,3.95
2023-10-18T08:09:07.852Z,3.99
2023-10-18T08:09:42.943Z,4.04
2023-10-18T08:10:22.874Z,4.09
2023-10-18T08:11:25.428Z,4.21
2023-10-18T08:12:07.382Z,4.24
2023-10-18T08:12:41.275Z,4.29
2023-10-18T08:13:18.193Z,4.35
2023-10-18T08:13:54.675Z,4.41
2023-10-18T08:14:29.021Z,4.45
2023-10-18T08:15:20.022Z,4.51
2023-10-18T08:15:57.903Z,4.49
2023-10-18T08:16:44.744Z,4.52
2023-10-18T08:17:40.273Z,4.56
2023-10-18T08:18:54.541Z,4.67
2023-10-18T08:19:32.262Z,4.68
2023-10-18T08:20:24.340Z,4.72
2023-10-18T08:21:08.269Z,4.78
2023-10-18T08:21:59.310Z,4.84
2023-10-18T08:23:16.082Z,4.92
2023-10-18T08:23:49.480Z,4.96
2023-10-18T08:24:27.636Z,5.01
2023-10-18T08:25:02.867Z,5.04
2023-10-18T08:25:36.831Z,5.04
2023-10-18T08:26:49.237Z,5.08
2023-10-18T08:27:23.650Z,5.10
2023-10-18T08:27:57.729Z,5.14
2023-10-18T08:28:47.783Z,5.17
2023-10-18T08:29:21.052Z,5.16
2023-10-18T08:30:44.362Z,5.23
2023-10-18T08:31:28.730Z,5.24
2023-10-18T08:32:08.268Z,5.24
2023-10-18T08:32:42.158Z,5.21
2023-10-18T08:33:15.942Z,5.22
2023-10-18T08:34:07.683Z,5.27
2023-10-18T08:34:41.752Z,5.26
2023-10-18T08:35:20.391Z,5.28
2023-10-18T08:36:00.097Z,5.29
2023-10-18T08:36:34.104Z,5.30
2023-10-18T08:37:08.502Z,5.31
2023-10-18T08:37:53.424Z,5.33
2023-10-18T08:38:28.371Z,5.33
2023-10-18T08:39:05.459Z,5.34
2023-10-18T08:39:41.694Z,5.38
2023-10-18T08:40:34.654Z,5.41
2023-10-18T08:41:39.307Z,5.53
2023-10-18T08:42:15.279Z,5.55
2023-10-18T08:42:52.903Z,5.57
2023-10-18T08:43:30.290Z,5.60
2023-10-18T08:44:26.985Z,5.64
2023-10-18T08:45:20.885Z,5.73
2023-10-18T08:45:54.847Z,5.74
2023-10-18T08:46:28.818Z,5.79
2023-10-18T08:47:11.855Z,5.85
2023-10-18T08:47:51.189Z,5.92
2023-10-18T08:48:58.069Z,6.00
2023-10-18T08:49:34.443Z,6.05
2023-10-18T08:50:12.185Z,6.09
2023-10-18T08:50:46.683Z,6.14
2023-10-18T08:51:22.971Z,6.19
2023-10-18T08:52:36.494Z,6.34
2023-10-18T08:53:12.768Z,6.36
2023-10-18T08:53:46.786Z,6.38
2023-10-18T08:54:21.601Z,6.40
2023-10-18T08:54:56.562Z,6.44
2023-10-18T08:55:48.871Z,6.43
2023-10-18T08:56:53.257Z,6.47
2023-10-18T08:57:36.646Z,6.44
2023-10-18T08:58:10.642Z,6.46
2023-10-18T08:58:44.896Z,6.48
2023-10-18T08:59:20.192Z,6.51
2023-10-18T09:00:39.845Z,6.57
2023-10-18T09:01:13.744Z,6.63
2023-10-18T09:02:06.152Z,6.65
2023-10-18T09:02:42.674Z,6.69
2023-10-18T09:03:16.509Z,6.72
2023-10-18T09:04:00.510Z,6.78
2023-10-18T09:04:37.177Z,6.81
2023-10-18T09:05:11.771Z,6.85
2023-10-18T09:05:46.250Z,6.90
2023-10-18T09:06:32.305Z,6.95
2023-10-18T09:07:46.601Z,7.07
2023-10-18T09:08:21.072Z,7.09
2023-10-18T09:09:07.586Z,7.15
2023-10-18T09:09:43.500Z,7.23
2023-10-18T09:10:44.252Z,7.28
2023-10-18T09:11:29.256Z,7.38
2023-10-18T09:12:16.127Z,7.41
2023-10-18T09:12:49.886Z,7.46
2023-10-18T09:13:25.435Z,7.49
2023-10-18T09:14:14.203Z,7.52